sensor_id;sensor_type;location;lat;lon;timestamp;P1;durP1;ratioP1;P2;durP2;ratioP2
10365;SDS011;5229;41.820;23.490;2022-07-10T00:00:17;6.10;;;4.43;;
10365;SDS011;5229;41.820;23.490;2022-07-10T00:02:46;7.43;;;5.47;;
10365;SDS011;5229;41.820;23.490;2022-07-10T00:05:14;3.30;;;3.00;;
10365;SDS011;5229;41.820;23.490;2022-07-10T00:07:41;3.10;;;2.80;;
10365;SDS011;5229;41.820;23.490;2022-07-10T00:10:08;9.53;;;7.10;;
10365;SDS011;5229;41.820;23.490;2022-07-10T00:12:35;8.53;;;5.17;;
10365;SDS011;5229;41.820;23.490;2022-07-10T00:15:02;4.03;;;3.23;;
10365;SDS011;5229;41.820;23.490;2022-07-10T00:17:29;5.50;;;3.60;;
10365;SDS011;5229;41.820;23.490;2022-07-10T00:19:58;4.63;;;3.50;;
10365;SDS011;5229;41.820;23.490;2022-07-10T00:22:27;20.07;;;11.63;;
10365;SDS011;5229;41.820;23.490;2022-07-10T00:24:56;22.20;;;11.60;;
10365;SDS011;5229;41.820;23.490;2022-07-10T00:27:22;10.27;;;6.93;;
10365;SDS011;5229;41.820;23.490;2022-07-10T00:29:51;7.03;;;5.97;;
10365;SDS011;5229;41.820;23.490;2022-07-10T00:32:26;4.10;;;3.20;;
10365;SDS011;5229;41.820;23.490;2022-07-10T00:34:58;3.60;;;2.93;;
10365;SDS011;5229;41.820;23.490;2022-07-10T00:37:38;5.23;;;2.40;;
10365;SDS011;5229;41.820;23.490;2022-07-10T00:40:06;3.73;;;3.43;;
10365;SDS011;5229;41.820;23.490;2022-07-10T00:42:33;2.73;;;2.33;;
10365;SDS011;5229;41.820;23.490;2022-07-10T00:45:05;3.37;;;2.57;;
10365;SDS011;5229;41.820;23.490;2022-07-10T00:47:35;2.87;;;2.67;;
10365;SDS011;5229;41.820;23.490;2022-07-10T00:50:04;4.63;;;3.10;;
10365;SDS011;5229;41.820;23.490;2022-07-10T00:55:32;3.37;;;3.07;;
10365;SDS011;5229;41.820;23.490;2022-07-10T00:58:08;3.50;;;3.20;;
10365;SDS011;5229;41.820;23.490;2022-07-10T01:00:49;2.80;;;2.60;;
10365;SDS011;5229;41.820;23.490;2022-07-10T01:03:21;3.17;;;2.97;;
10365;SDS011;5229;41.820;23.490;2022-07-10T01:05:55;3.10;;;2.80;;
10365;SDS011;5229;41.820;23.490;2022-07-10T01:08:41;5.53;;;2.80;;
10365;SDS011;5229;41.820;23.490;2022-07-10T01:11:10;3.07;;;2.77;;
10365;SDS011;5229;41.820;23.490;2022-07-10T01:13:44;2.70;;;2.50;;
10365;SDS011;5229;41.820;23.490;2022-07-10T01:16:20;3.73;;;3.03;;
10365;SDS011;5229;41.820;23.490;2022-07-10T01:18:53;5.73;;;2.87;;
10365;SDS011;5229;41.820;23.490;2022-07-10T01:21:29;3.33;;;3.03;;
10365;SDS011;5229;41.820;23.490;2022-07-10T01:24:05;4.90;;;3.00;;
10365;SDS011;5229;41.820;23.490;2022-07-10T01:26:37;3.77;;;2.73;;
10365;SDS011;5229;41.820;23.490;2022-07-10T01:29:08;5.07;;;2.50;;
10365;SDS011;5229;41.820;23.490;2022-07-10T01:31:36;2.33;;;2.13;;
10365;SDS011;5229;41.820;23.490;2022-07-10T01:34:05;2.43;;;2.23;;
10365;SDS011;5229;41.820;23.490;2022-07-10T01:36:37;2.57;;;2.37;;
10365;SDS011;5229;41.820;23.490;2022-07-10T01:39:04;5.70;;;2.70;;
10365;SDS011;5229;41.820;23.490;2022-07-10T01:41:34;2.97;;;2.60;;
10365;SDS011;5229;41.820;23.490;2022-07-10T01:44:01;3.73;;;2.50;;
10365;SDS011;5229;41.820;23.490;2022-07-10T01:46:27;2.87;;;2.67;;
10365;SDS011;5229;41.820;23.490;2022-07-10T01:48:54;3.77;;;2.80;;
10365;SDS011;5229;41.820;23.490;2022-07-10T01:51:21;3.50;;;2.77;;
10365;SDS011;5229;41.820;23.490;2022-07-10T01:53:49;2.90;;;2.70;;
10365;SDS011;5229;41.820;23.490;2022-07-10T01:56:16;3.17;;;2.87;;
10365;SDS011;5229;41.820;23.490;2022-07-10T01:58:43;2.80;;;2.60;;
10365;SDS011;5229;41.820;23.490;2022-07-10T02:01:11;3.73;;;3.20;;
10365;SDS011;5229;41.820;23.490;2022-07-10T02:03:38;3.00;;;2.70;;
10365;SDS011;5229;41.820;23.490;2022-07-10T02:06:22;3.73;;;3.00;;
10365;SDS011;5229;41.820;23.490;2022-07-10T02:08:50;3.13;;;2.90;;
10365;SDS011;5229;41.820;23.490;2022-07-10T02:11:17;2.80;;;2.60;;
10365;SDS011;5229;41.820;23.490;2022-07-10T02:13:44;3.10;;;2.90;;
10365;SDS011;5229;41.820;23.490;2022-07-10T02:16:11;3.40;;;3.10;;
10365;SDS011;5229;41.820;23.490;2022-07-10T02:18:38;3.13;;;2.83;;
10365;SDS011;5229;41.820;23.490;2022-07-10T02:21:05;2.83;;;2.63;;
10365;SDS011;5229;41.820;23.490;2022-07-10T02:23:32;4.37;;;2.53;;
10365;SDS011;5229;41.820;23.490;2022-07-10T02:26:00;5.27;;;2.83;;
10365;SDS011;5229;41.820;23.490;2022-07-10T02:28:27;3.27;;;2.30;;
10365;SDS011;5229;41.820;23.490;2022-07-10T02:30:55;3.13;;;2.83;;
10365;SDS011;5229;41.820;23.490;2022-07-10T02:33:22;2.53;;;2.33;;
10365;SDS011;5229;41.820;23.490;2022-07-10T02:35:49;2.67;;;2.47;;
10365;SDS011;5229;41.820;23.490;2022-07-10T02:38:15;2.93;;;2.73;;
10365;SDS011;5229;41.820;23.490;2022-07-10T02:40:42;3.27;;;2.97;;
10365;SDS011;5229;41.820;23.490;2022-07-10T02:43:11;2.83;;;2.63;;
10365;SDS011;5229;41.820;23.490;2022-07-10T02:45:38;2.77;;;2.53;;
10365;SDS011;5229;41.820;23.490;2022-07-10T02:48:05;4.33;;;2.70;;
10365;SDS011;5229;41.820;23.490;2022-07-10T02:50:31;3.07;;;2.77;;
10365;SDS011;5229;41.820;23.490;2022-07-10T02:52:58;4.00;;;2.50;;
10365;SDS011;5229;41.820;23.490;2022-07-10T02:55:26;2.60;;;2.40;;
10365;SDS011;5229;41.820;23.490;2022-07-10T02:57:52;2.67;;;2.47;;
10365;SDS011;5229;41.820;23.490;2022-07-10T03:00:21;3.33;;;2.50;;
10365;SDS011;5229;41.820;23.490;2022-07-10T03:02:47;5.87;;;2.73;;
10365;SDS011;5229;41.820;23.490;2022-07-10T03:05:14;5.07;;;2.70;;
10365;SDS011;5229;41.820;23.490;2022-07-10T03:07:41;5.53;;;2.60;;
10365;SDS011;5229;41.820;23.490;2022-07-10T03:10:08;3.10;;;2.80;;
10365;SDS011;5229;41.820;23.490;2022-07-10T03:12:36;2.40;;;2.20;;
10365;SDS011;5229;41.820;23.490;2022-07-10T03:15:03;2.83;;;2.17;;
10365;SDS011;5229;41.820;23.490;2022-07-10T03:17:33;2.93;;;2.73;;
10365;SDS011;5229;41.820;23.490;2022-07-10T03:19:59;2.40;;;2.20;;
10365;SDS011;5229;41.820;23.490;2022-07-10T03:22:26;2.87;;;2.67;;
10365;SDS011;5229;41.820;23.490;2022-07-10T03:24:54;4.13;;;2.60;;
10365;SDS011;5229;41.820;23.490;2022-07-10T03:27:21;2.50;;;2.30;;
10365;SDS011;5229;41.820;23.490;2022-07-10T03:29:47;4.13;;;2.50;;
10365;SDS011;5229;41.820;23.490;2022-07-10T03:32:14;2.60;;;2.40;;
10365;SDS011;5229;41.820;23.490;2022-07-10T03:34:43;3.30;;;2.67;;
10365;SDS011;5229;41.820;23.490;2022-07-10T03:37:10;3.63;;;3.20;;
10365;SDS011;5229;41.820;23.490;2022-07-10T03:39:36;2.37;;;2.17;;
10365;SDS011;5229;41.820;23.490;2022-07-10T03:42:04;2.97;;;2.57;;
10365;SDS011;5229;41.820;23.490;2022-07-10T03:44:32;2.57;;;2.37;;
10365;SDS011;5229;41.820;23.490;2022-07-10T03:46:58;2.57;;;2.37;;
10365;SDS011;5229;41.820;23.490;2022-07-10T03:49:26;3.87;;;2.40;;
10365;SDS011;5229;41.820;23.490;2022-07-10T03:51:54;3.07;;;2.50;;
10365;SDS011;5229;41.820;23.490;2022-07-10T03:54:20;2.63;;;2.43;;
10365;SDS011;5229;41.820;23.490;2022-07-10T03:56:48;3.23;;;2.80;;
10365;SDS011;5229;41.820;23.490;2022-07-10T03:59:32;4.47;;;2.80;;
10365;SDS011;5229;41.820;23.490;2022-07-10T04:01:59;3.00;;;2.73;;
10365;SDS011;5229;41.820;23.490;2022-07-10T04:04:26;4.57;;;3.47;;
10365;SDS011;5229;41.820;23.490;2022-07-10T04:06:54;4.40;;;4.00;;
10365;SDS011;5229;41.820;23.490;2022-07-10T04:09:21;4.10;;;3.70;;
10365;SDS011;5229;41.820;23.490;2022-07-10T04:11:47;4.93;;;4.43;;
10365;SDS011;5229;41.820;23.490;2022-07-10T04:14:14;4.20;;;3.80;;
10365;SDS011;5229;41.820;23.490;2022-07-10T04:16:41;6.73;;;4.20;;
10365;SDS011;5229;41.820;23.490;2022-07-10T04:19:08;5.30;;;4.67;;
10365;SDS011;5229;41.820;23.490;2022-07-10T04:21:35;5.47;;;4.63;;
10365;SDS011;5229;41.820;23.490;2022-07-10T04:24:03;5.70;;;4.53;;
10365;SDS011;5229;41.820;23.490;2022-07-10T04:26:31;5.33;;;4.30;;
10365;SDS011;5229;41.820;23.490;2022-07-10T04:28:57;4.87;;;4.40;;
10365;SDS011;5229;41.820;23.490;2022-07-10T04:31:24;6.10;;;4.50;;
10365;SDS011;5229;41.820;23.490;2022-07-10T04:33:51;5.47;;;4.97;;
10365;SDS011;5229;41.820;23.490;2022-07-10T04:36:18;6.63;;;5.40;;
10365;SDS011;5229;41.820;23.490;2022-07-10T04:38:44;6.07;;;5.57;;
10365;SDS011;5229;41.820;23.490;2022-07-10T04:41:13;5.53;;;5.03;;
10365;SDS011;5229;41.820;23.490;2022-07-10T04:43:39;5.60;;;5.10;;
10365;SDS011;5229;41.820;23.490;2022-07-10T04:46:06;5.70;;;5.20;;
10365;SDS011;5229;41.820;23.490;2022-07-10T04:48:33;6.10;;;5.60;;
10365;SDS011;5229;41.820;23.490;2022-07-10T04:51:00;6.13;;;5.53;;
10365;SDS011;5229;41.820;23.490;2022-07-10T04:53:26;7.33;;;5.50;;
10365;SDS011;5229;41.820;23.490;2022-07-10T04:55:53;8.50;;;5.67;;
10365;SDS011;5229;41.820;23.490;2022-07-10T04:58:21;5.80;;;5.30;;
10365;SDS011;5229;41.820;23.490;2022-07-10T05:00:48;7.60;;;5.90;;
10365;SDS011;5229;41.820;23.490;2022-07-10T05:03:15;6.17;;;5.53;;
10365;SDS011;5229;41.820;23.490;2022-07-10T05:05:42;6.37;;;5.77;;
10365;SDS011;5229;41.820;23.490;2022-07-10T05:08:09;6.23;;;5.63;;
10365;SDS011;5229;41.820;23.490;2022-07-10T05:10:36;6.37;;;5.77;;
10365;SDS011;5229;41.820;23.490;2022-07-10T05:13:03;7.20;;;5.83;;
10365;SDS011;5229;41.820;23.490;2022-07-10T05:15:31;6.17;;;5.67;;
10365;SDS011;5229;41.820;23.490;2022-07-10T05:17:58;6.50;;;5.73;;
10365;SDS011;5229;41.820;23.490;2022-07-10T05:20:25;5.83;;;5.23;;
10365;SDS011;5229;41.820;23.490;2022-07-10T05:22:55;5.90;;;5.30;;
10365;SDS011;5229;41.820;23.490;2022-07-10T05:25:22;6.20;;;5.50;;
10365;SDS011;5229;41.820;23.490;2022-07-10T05:27:55;6.07;;;5.50;;
10365;SDS011;5229;41.820;23.490;2022-07-10T05:30:24;5.67;;;5.17;;
10365;SDS011;5229;41.820;23.490;2022-07-10T05:32:55;5.83;;;5.30;;
10365;SDS011;5229;41.820;23.490;2022-07-10T05:35:24;6.13;;;5.53;;
10365;SDS011;5229;41.820;23.490;2022-07-10T05:37:55;5.90;;;5.20;;
10365;SDS011;5229;41.820;23.490;2022-07-10T05:40:26;7.90;;;6.97;;
10365;SDS011;5229;41.820;23.490;2022-07-10T05:42:52;8.17;;;7.40;;
10365;SDS011;5229;41.820;23.490;2022-07-10T05:45:31;8.70;;;7.60;;
10365;SDS011;5229;41.820;23.490;2022-07-10T05:48:04;7.83;;;7.03;;
10365;SDS011;5229;41.820;23.490;2022-07-10T05:50:33;8.77;;;7.87;;
10365;SDS011;5229;41.820;23.490;2022-07-10T05:53:11;8.67;;;7.87;;
10365;SDS011;5229;41.820;23.490;2022-07-10T05:58:36;8.57;;;7.67;;
10365;SDS011;5229;41.820;23.490;2022-07-10T06:01:18;9.03;;;8.13;;
10365;SDS011;5229;41.820;23.490;2022-07-10T06:03:56;8.50;;;7.60;;
10365;SDS011;5229;41.820;23.490;2022-07-10T06:06:29;8.93;;;7.57;;
10365;SDS011;5229;41.820;23.490;2022-07-10T06:08:58;7.67;;;6.80;;
10365;SDS011;5229;41.820;23.490;2022-07-10T06:11:25;8.37;;;6.97;;
10365;SDS011;5229;41.820;23.490;2022-07-10T06:13:52;6.60;;;5.93;;
10365;SDS011;5229;41.820;23.490;2022-07-10T06:16:22;6.28;;;5.68;;
10365;SDS011;5229;41.820;23.490;2022-07-10T06:18:50;5.50;;;5.00;;
10365;SDS011;5229;41.820;23.490;2022-07-10T06:21:16;7.63;;;5.57;;
10365;SDS011;5229;41.820;23.490;2022-07-10T06:23:46;6.68;;;5.82;;
10365;SDS011;5229;41.820;23.490;2022-07-10T06:26:13;6.03;;;5.45;;
10365;SDS011;5229;41.820;23.490;2022-07-10T06:28:40;5.32;;;4.85;;
10365;SDS011;5229;41.820;23.490;2022-07-10T06:31:07;5.53;;;5.03;;
10365;SDS011;5229;41.820;23.490;2022-07-10T06:33:34;7.00;;;4.80;;
10365;SDS011;5229;41.820;23.490;2022-07-10T06:36:03;4.82;;;4.43;;
10365;SDS011;5229;41.820;23.490;2022-07-10T06:38:30;5.47;;;4.53;;
10365;SDS011;5229;41.820;23.490;2022-07-10T06:40:57;4.65;;;4.25;;
10365;SDS011;5229;41.820;23.490;2022-07-10T06:43:24;7.03;;;4.45;;
10365;SDS011;5229;41.820;23.490;2022-07-10T06:45:51;4.20;;;3.90;;
10365;SDS011;5229;41.820;23.490;2022-07-10T06:48:18;3.88;;;3.47;;
10365;SDS011;5229;41.820;23.490;2022-07-10T06:50:45;4.57;;;4.18;;
10365;SDS011;5229;41.820;23.490;2022-07-10T06:53:13;3.95;;;3.45;;
10365;SDS011;5229;41.820;23.490;2022-07-10T06:55:41;5.18;;;3.60;;
10365;SDS011;5229;41.820;23.490;2022-07-10T06:58:08;5.90;;;4.13;;
10365;SDS011;5229;41.820;23.490;2022-07-10T07:00:34;3.70;;;3.40;;
10365;SDS011;5229;41.820;23.490;2022-07-10T07:03:01;5.18;;;4.68;;
10365;SDS011;5229;41.820;23.490;2022-07-10T07:05:29;5.18;;;4.70;;
10365;SDS011;5229;41.820;23.490;2022-07-10T07:07:56;5.05;;;4.55;;
10365;SDS011;5229;41.820;23.490;2022-07-10T07:10:24;5.18;;;4.78;;
10365;SDS011;5229;41.820;23.490;2022-07-10T07:12:51;5.15;;;4.70;;
10365;SDS011;5229;41.820;23.490;2022-07-10T07:15:18;5.13;;;4.70;;
10365;SDS011;5229;41.820;23.490;2022-07-10T07:17:48;5.97;;;4.68;;
10365;SDS011;5229;41.820;23.490;2022-07-10T07:20:32;5.35;;;4.80;;
10365;SDS011;5229;41.820;23.490;2022-07-10T07:23:17;5.88;;;5.38;;
10365;SDS011;5229;41.820;23.490;2022-07-10T07:25:45;5.72;;;5.28;;
10365;SDS011;5229;41.820;23.490;2022-07-10T07:28:13;5.45;;;4.97;;
10365;SDS011;5229;41.820;23.490;2022-07-10T07:30:42;6.00;;;5.40;;
10365;SDS011;5229;41.820;23.490;2022-07-10T07:33:09;7.22;;;4.68;;
10365;SDS011;5229;41.820;23.490;2022-07-10T07:35:36;5.30;;;4.80;;
10365;SDS011;5229;41.820;23.490;2022-07-10T07:38:03;5.32;;;4.57;;
10365;SDS011;5229;41.820;23.490;2022-07-10T07:40:31;6.55;;;5.00;;
10365;SDS011;5229;41.820;23.490;2022-07-10T07:42:59;6.35;;;4.10;;
10365;SDS011;5229;41.820;23.490;2022-07-10T07:45:26;4.97;;;4.47;;
10365;SDS011;5229;41.820;23.490;2022-07-10T07:47:54;5.05;;;4.65;;
10365;SDS011;5229;41.820;23.490;2022-07-10T07:50:22;5.03;;;4.53;;
10365;SDS011;5229;41.820;23.490;2022-07-10T07:52:51;5.43;;;4.57;;
10365;SDS011;5229;41.820;23.490;2022-07-10T07:55:18;5.18;;;4.68;;
10365;SDS011;5229;41.820;23.490;2022-07-10T07:57:46;5.47;;;4.65;;
10365;SDS011;5229;41.820;23.490;2022-07-10T08:00:15;4.63;;;4.22;;
10365;SDS011;5229;41.820;23.490;2022-07-10T08:02:43;4.82;;;4.38;;
10365;SDS011;5229;41.820;23.490;2022-07-10T08:05:10;4.88;;;4.47;;
10365;SDS011;5229;41.820;23.490;2022-07-10T08:07:37;4.45;;;4.15;;
10365;SDS011;5229;41.820;23.490;2022-07-10T08:10:07;4.13;;;3.83;;
10365;SDS011;5229;41.820;23.490;2022-07-10T08:12:35;5.47;;;3.70;;
10365;SDS011;5229;41.820;23.490;2022-07-10T08:15:04;4.07;;;3.78;;
10365;SDS011;5229;41.820;23.490;2022-07-10T08:17:34;3.45;;;3.15;;
10365;SDS011;5229;41.820;23.490;2022-07-10T08:20:01;4.30;;;3.90;;
10365;SDS011;5229;41.820;23.490;2022-07-10T08:22:28;4.00;;;3.70;;
10365;SDS011;5229;41.820;23.490;2022-07-10T08:24:54;3.67;;;3.38;;
10365;SDS011;5229;41.820;23.490;2022-07-10T08:27:22;3.45;;;3.15;;
10365;SDS011;5229;41.820;23.490;2022-07-10T08:29:49;3.60;;;3.30;;
10365;SDS011;5229;41.820;23.490;2022-07-10T08:32:16;4.47;;;3.13;;
10365;SDS011;5229;41.820;23.490;2022-07-10T08:34:45;3.67;;;3.35;;
10365;SDS011;5229;41.820;23.490;2022-07-10T08:37:13;4.15;;;3.50;;
10365;SDS011;5229;41.820;23.490;2022-07-10T08:39:39;3.95;;;3.30;;
10365;SDS011;5229;41.820;23.490;2022-07-10T08:42:06;5.10;;;3.33;;
10365;SDS011;5229;41.820;23.490;2022-07-10T08:44:36;3.83;;;3.53;;
10365;SDS011;5229;41.820;23.490;2022-07-10T08:47:03;8.02;;;3.95;;
10365;SDS011;5229;41.820;23.490;2022-07-10T08:49:31;3.65;;;3.35;;
10365;SDS011;5229;41.820;23.490;2022-07-10T08:52:03;2.97;;;2.78;;
10365;SDS011;5229;41.820;23.490;2022-07-10T08:54:31;3.53;;;3.22;;
10365;SDS011;5229;41.820;23.490;2022-07-10T08:56:59;3.50;;;3.30;;
10365;SDS011;5229;41.820;23.490;2022-07-10T08:59:27;4.07;;;3.78;;
10365;SDS011;5229;41.820;23.490;2022-07-10T09:01:55;4.05;;;3.75;;
10365;SDS011;5229;41.820;23.490;2022-07-10T09:04:23;3.90;;;3.60;;
10365;SDS011;5229;41.820;23.490;2022-07-10T09:06:52;4.32;;;3.92;;
10365;SDS011;5229;41.820;23.490;2022-07-10T09:09:21;5.47;;;3.78;;
10365;SDS011;5229;41.820;23.490;2022-07-10T09:11:54;4.65;;;4.18;;
10365;SDS011;5229;41.820;23.490;2022-07-10T09:14:22;3.50;;;3.30;;
10365;SDS011;5229;41.820;23.490;2022-07-10T09:16:52;4.25;;;3.95;;
10365;SDS011;5229;41.820;23.490;2022-07-10T09:19:20;4.28;;;3.90;;
10365;SDS011;5229;41.820;23.490;2022-07-10T09:21:49;3.67;;;3.40;;
10365;SDS011;5229;41.820;23.490;2022-07-10T09:24:17;4.10;;;3.80;;
10365;SDS011;5229;41.820;23.490;2022-07-10T09:26:57;3.92;;;3.63;;
10365;SDS011;5229;41.820;23.490;2022-07-10T09:29:28;3.60;;;3.40;;
10365;SDS011;5229;41.820;23.490;2022-07-10T09:31:56;6.75;;;3.75;;
10365;SDS011;5229;41.820;23.490;2022-07-10T09:34:36;4.00;;;3.60;;
10365;SDS011;5229;41.820;23.490;2022-07-10T09:37:16;4.35;;;3.38;;
10365;SDS011;5229;41.820;23.490;2022-07-10T09:39:53;3.95;;;3.65;;
10365;SDS011;5229;41.820;23.490;2022-07-10T09:42:30;4.07;;;3.78;;
10365;SDS011;5229;41.820;23.490;2022-07-10T09:45:13;4.22;;;3.92;;
10365;SDS011;5229;41.820;23.490;2022-07-10T09:47:42;3.85;;;3.55;;
10365;SDS011;5229;41.820;23.490;2022-07-10T09:50:21;4.28;;;3.88;;
10365;SDS011;5229;41.820;23.490;2022-07-10T09:52:50;3.38;;;3.17;;
10365;SDS011;5229;41.820;23.490;2022-07-10T09:55:20;4.40;;;4.00;;
10365;SDS011;5229;41.820;23.490;2022-07-10T09:57:59;3.88;;;3.63;;
10365;SDS011;5229;41.820;23.490;2022-07-10T10:00:28;4.40;;;3.97;;
10365;SDS011;5229;41.820;23.490;2022-07-10T10:02:58;7.63;;;4.05;;
10365;SDS011;5229;41.820;23.490;2022-07-10T10:05:34;4.20;;;3.72;;
10365;SDS011;5229;41.820;23.490;2022-07-10T10:08:15;3.72;;;3.42;;
10365;SDS011;5229;41.820;23.490;2022-07-10T10:10:47;3.80;;;3.50;;
10365;SDS011;5229;41.820;23.490;2022-07-10T10:13:17;3.05;;;2.85;;
10365;SDS011;5229;41.820;23.490;2022-07-10T10:15:46;4.00;;;3.70;;
10365;SDS011;5229;41.820;23.490;2022-07-10T10:18:15;3.63;;;3.33;;
10365;SDS011;5229;41.820;23.490;2022-07-10T10:20:44;3.30;;;3.00;;
10365;SDS011;5229;41.820;23.490;2022-07-10T10:23:12;3.60;;;3.30;;
10365;SDS011;5229;41.820;23.490;2022-07-10T10:25:40;3.28;;;2.80;;
10365;SDS011;5229;41.820;23.490;2022-07-10T10:28:09;3.28;;;3.00;;
10365;SDS011;5229;41.820;23.490;2022-07-10T10:30:39;3.22;;;3.03;;
10365;SDS011;5229;41.820;23.490;2022-07-10T10:36:10;3.03;;;2.83;;
10365;SDS011;5229;41.820;23.490;2022-07-10T10:41:29;3.40;;;3.10;;
10365;SDS011;5229;41.820;23.490;2022-07-10T10:46:59;2.95;;;2.75;;
10365;SDS011;5229;41.820;23.490;2022-07-10T10:49:49;4.65;;;3.30;;
10365;SDS011;5229;41.820;23.490;2022-07-10T10:52:17;3.08;;;2.88;;
10365;SDS011;5229;41.820;23.490;2022-07-10T10:55:00;3.28;;;3.08;;
10365;SDS011;5229;41.820;23.490;2022-07-10T10:57:40;2.95;;;2.75;;
10365;SDS011;5229;41.820;23.490;2022-07-10T11:03:20;5.78;;;3.10;;
10365;SDS011;5229;41.820;23.490;2022-07-10T11:05:49;3.45;;;3.15;;
10365;SDS011;5229;41.820;23.490;2022-07-10T11:08:36;4.35;;;3.58;;
10365;SDS011;5229;41.820;23.490;2022-07-10T11:14:04;4.03;;;3.63;;
10365;SDS011;5229;41.820;23.490;2022-07-10T11:16:33;3.47;;;3.28;;
10365;SDS011;5229;41.820;23.490;2022-07-10T11:19:02;4.10;;;3.70;;
10365;SDS011;5229;41.820;23.490;2022-07-10T11:21:32;3.28;;;3.08;;
10365;SDS011;5229;41.820;23.490;2022-07-10T11:24:15;3.67;;;3.38;;
10365;SDS011;5229;41.820;23.490;2022-07-10T11:26:58;3.67;;;3.38;;
10365;SDS011;5229;41.820;23.490;2022-07-10T11:29:35;3.42;;;3.22;;
10365;SDS011;5229;41.820;23.490;2022-07-10T11:32:04;4.00;;;3.70;;
10365;SDS011;5229;41.820;23.490;2022-07-10T11:34:37;3.75;;;3.45;;
10365;SDS011;5229;41.820;23.490;2022-07-10T11:37:13;4.95;;;3.50;;
10365;SDS011;5229;41.820;23.490;2022-07-10T11:39:40;3.95;;;3.58;;
10365;SDS011;5229;41.820;23.490;2022-07-10T11:42:07;3.35;;;3.15;;
10365;SDS011;5229;41.820;23.490;2022-07-10T11:44:34;6.03;;;3.20;;
10365;SDS011;5229;41.820;23.490;2022-07-10T11:47:03;3.30;;;3.05;;
10365;SDS011;5229;41.820;23.490;2022-07-10T11:49:32;3.05;;;2.85;;
10365;SDS011;5229;41.820;23.490;2022-07-10T11:52:02;4.15;;;3.75;;
10365;SDS011;5229;41.820;23.490;2022-07-10T11:54:30;4.13;;;3.72;;
10365;SDS011;5229;41.820;23.490;2022-07-10T11:57:03;4.03;;;3.00;;
10365;SDS011;5229;41.820;23.490;2022-07-10T11:59:31;3.67;;;3.38;;
10365;SDS011;5229;41.820;23.490;2022-07-10T12:01:57;6.32;;;3.47;;
10365;SDS011;5229;41.820;23.490;2022-07-10T12:04:24;3.20;;;2.95;;
10365;SDS011;5229;41.820;23.490;2022-07-10T12:06:54;3.10;;;2.90;;
10365;SDS011;5229;41.820;23.490;2022-07-10T12:09:23;5.40;;;2.72;;
10365;SDS011;5229;41.820;23.490;2022-07-10T12:12:00;4.90;;;3.50;;
10365;SDS011;5229;41.820;23.490;2022-07-10T12:14:28;3.67;;;3.38;;
10365;SDS011;5229;41.820;23.490;2022-07-10T12:16:56;3.90;;;3.03;;
10365;SDS011;5229;41.820;23.490;2022-07-10T12:19:24;3.10;;;2.80;;
10365;SDS011;5229;41.820;23.490;2022-07-10T12:21:52;3.78;;;3.00;;
10365;SDS011;5229;41.820;23.490;2022-07-10T12:24:22;5.03;;;3.40;;
10365;SDS011;5229;41.820;23.490;2022-07-10T12:26:51;3.78;;;3.47;;
10365;SDS011;5229;41.820;23.490;2022-07-10T12:29:20;3.75;;;3.45;;
10365;SDS011;5229;41.820;23.490;2022-07-10T12:31:49;3.85;;;3.42;;
10365;SDS011;5229;41.820;23.490;2022-07-10T12:34:17;3.78;;;3.47;;
10365;SDS011;5229;41.820;23.490;2022-07-10T12:36:45;3.42;;;3.05;;
10365;SDS011;5229;41.820;23.490;2022-07-10T12:39:13;4.28;;;3.17;;
10365;SDS011;5229;41.820;23.490;2022-07-10T12:41:56;3.20;;;3.00;;
10365;SDS011;5229;41.820;23.490;2022-07-10T12:44:40;3.22;;;3.03;;
10365;SDS011;5229;41.820;23.490;2022-07-10T12:47:08;3.47;;;3.17;;
10365;SDS011;5229;41.820;23.490;2022-07-10T12:49:56;3.05;;;2.75;;
10365;SDS011;5229;41.820;23.490;2022-07-10T12:52:24;2.97;;;2.67;;
10365;SDS011;5229;41.820;23.490;2022-07-10T12:55:05;2.78;;;2.58;;
10365;SDS011;5229;41.820;23.490;2022-07-10T12:57:50;2.63;;;2.42;;
10365;SDS011;5229;41.820;23.490;2022-07-10T13:00:19;3.30;;;2.75;;
10365;SDS011;5229;41.820;23.490;2022-07-10T13:02:47;2.90;;;2.70;;
10365;SDS011;5229;41.820;23.490;2022-07-10T13:05:25;3.20;;;2.90;;
10365;SDS011;5229;41.820;23.490;2022-07-10T13:07:52;3.30;;;3.00;;
10365;SDS011;5229;41.820;23.490;2022-07-10T13:10:30;3.17;;;2.88;;
10365;SDS011;5229;41.820;23.490;2022-07-10T13:12:59;2.85;;;2.65;;
10365;SDS011;5229;41.820;23.490;2022-07-10T13:15:26;3.00;;;2.80;;
10365;SDS011;5229;41.820;23.490;2022-07-10T13:17:54;3.22;;;2.80;;
10365;SDS011;5229;41.820;23.490;2022-07-10T13:20:21;3.08;;;2.88;;
10365;SDS011;5229;41.820;23.490;2022-07-10T13:22:49;2.85;;;2.65;;
10365;SDS011;5229;41.820;23.490;2022-07-10T13:25:16;3.00;;;2.63;;
10365;SDS011;5229;41.820;23.490;2022-07-10T13:27:43;2.60;;;2.40;;
10365;SDS011;5229;41.820;23.490;2022-07-10T13:30:11;2.60;;;2.40;;
10365;SDS011;5229;41.820;23.490;2022-07-10T13:32:38;2.90;;;2.70;;
10365;SDS011;5229;41.820;23.490;2022-07-10T13:35:05;3.28;;;2.63;;
10365;SDS011;5229;41.820;23.490;2022-07-10T13:37:32;2.50;;;2.30;;
10365;SDS011;5229;41.820;23.490;2022-07-10T13:39:59;2.90;;;2.70;;
10365;SDS011;5229;41.820;23.490;2022-07-10T13:42:26;2.90;;;2.70;;
10365;SDS011;5229;41.820;23.490;2022-07-10T13:44:53;3.10;;;2.80;;
10365;SDS011;5229;41.820;23.490;2022-07-10T13:47:21;3.17;;;2.88;;
10365;SDS011;5229;41.820;23.490;2022-07-10T13:49:48;3.20;;;3.00;;
10365;SDS011;5229;41.820;23.490;2022-07-10T13:52:15;3.05;;;2.85;;
10365;SDS011;5229;41.820;23.490;2022-07-10T13:54:42;2.88;;;2.67;;
10365;SDS011;5229;41.820;23.490;2022-07-10T13:57:09;2.90;;;2.70;;
10365;SDS011;5229;41.820;23.490;2022-07-10T13:59:36;6.28;;;3.17;;
10365;SDS011;5229;41.820;23.490;2022-07-10T14:02:03;3.30;;;3.00;;
10365;SDS011;5229;41.820;23.490;2022-07-10T14:04:32;3.00;;;2.80;;
10365;SDS011;5229;41.820;23.490;2022-07-10T14:06:59;2.78;;;2.58;;
10365;SDS011;5229;41.820;23.490;2022-07-10T14:09:25;2.92;;;2.72;;
10365;SDS011;5229;41.820;23.490;2022-07-10T14:11:53;3.60;;;2.83;;
10365;SDS011;5229;41.820;23.490;2022-07-10T14:14:20;3.20;;;3.00;;
10365;SDS011;5229;41.820;23.490;2022-07-10T14:16:48;4.22;;;2.78;;
10365;SDS011;5229;41.820;23.490;2022-07-10T14:19:16;3.78;;;3.40;;
10365;SDS011;5229;41.820;23.490;2022-07-10T14:21:44;3.25;;;3.05;;
10365;SDS011;5229;41.820;23.490;2022-07-10T14:24:11;3.40;;;3.05;;
10365;SDS011;5229;41.820;23.490;2022-07-10T14:26:38;3.22;;;2.92;;
10365;SDS011;5229;41.820;23.490;2022-07-10T14:29:05;3.88;;;3.05;;
10365;SDS011;5229;41.820;23.490;2022-07-10T14:31:32;2.95;;;2.75;;
10365;SDS011;5229;41.820;23.490;2022-07-10T14:33:59;6.63;;;2.78;;
10365;SDS011;5229;41.820;23.490;2022-07-10T14:36:26;3.17;;;2.88;;
10365;SDS011;5229;41.820;23.490;2022-07-10T14:38:54;2.92;;;2.72;;
10365;SDS011;5229;41.820;23.490;2022-07-10T14:41:22;2.80;;;2.60;;
10365;SDS011;5229;41.820;23.490;2022-07-10T14:43:50;3.03;;;2.80;;
10365;SDS011;5229;41.820;23.490;2022-07-10T14:46:17;2.70;;;2.50;;
10365;SDS011;5229;41.820;23.490;2022-07-10T14:48:44;4.00;;;2.90;;
10365;SDS011;5229;41.820;23.490;2022-07-10T14:51:11;2.83;;;2.63;;
10365;SDS011;5229;41.820;23.490;2022-07-10T14:53:37;2.88;;;2.67;;
10365;SDS011;5229;41.820;23.490;2022-07-10T14:56:08;3.28;;;2.65;;
10365;SDS011;5229;41.820;23.490;2022-07-10T14:58:35;3.13;;;2.83;;
10365;SDS011;5229;41.820;23.490;2022-07-10T15:01:02;3.10;;;2.78;;
10365;SDS011;5229;41.820;23.490;2022-07-10T15:03:29;3.03;;;2.83;;
10365;SDS011;5229;41.820;23.490;2022-07-10T15:05:56;2.75;;;2.55;;
10365;SDS011;5229;41.820;23.490;2022-07-10T15:08:23;2.65;;;2.45;;
10365;SDS011;5229;41.820;23.490;2022-07-10T15:10:50;2.60;;;2.40;;
10365;SDS011;5229;41.820;23.490;2022-07-10T15:13:19;2.58;;;2.33;;
10365;SDS011;5229;41.820;23.490;2022-07-10T15:15:46;2.20;;;1.98;;
10365;SDS011;5229;41.820;23.490;2022-07-10T15:18:15;2.47;;;2.28;;
10365;SDS011;5229;41.820;23.490;2022-07-10T15:20:41;1.90;;;1.80;;